Alton, New York
Current Conditions -  °F | °C
As of 2:54 AM on Sunday 26 Oct 2014 (Local Time) from KFZY Reporting Station
Overcast Overcast  
Wind Chill: 52°   Ceiling: 6000
Heat Index: 52°   Visibility: 10mi
Dew Point: 37°   Wind: 16mph
Humidity: 57%   Direction: 290°WNW
Pressure: 29.56"   Gusts: 29mph
Location:  43.21°N, 76.98°W
Report Text: KFZY 260654Z AUTO 29014G25KT 10SM OVC060 11/03 A2956 RMK AO2 PK WND 30027/0556 SLP011 T01110028
Loading
Personal Weather Stations






























Interactive Weather Map
Tropical Storm Tracking
New forecast layout! Learn more

10-Day Weather Forecast

Advertisements
Track Severe Weather on mobile